Time;durP1;ratioP1;P1;durP2;ratioP2;P2;SDS_P1;SDS_P2;PMS_P1;PMS_P2;Temp;Humidity;BMP_temperature;BMP_pressure;BME280_temperature;BME280_humidity;BME280_pressure;Samples;Min_cycle;Max_cycle;Signal;HPM_P1;HPM_P2
2022/08/13 00:02:16;;;;;;;3.40;1.17;;;25.60;46.30;;;;;;4992010;28;20035;-72
2022/08/13 00:04:55;;;;;;;3.72;1.58;;;25.50;45.00;;;;;;4992169;28;20116;-72
2022/08/13 00:07:20;;;;;;;2.53;1.33;;;25.50;45.20;;;;;;4992770;28;20029;-72
2022/08/13 00:09:47;;;;;;;4.50;1.77;;;25.50;45.50;;;;;;4977078;28;20046;-72
2022/08/13 00:15:25;;;;;;;2.30;1.05;;;25.40;45.00;;;;;;4972392;28;20042;-74
2022/08/13 00:17:51;;;;;;;3.30;1.38;;;25.40;45.00;;;;;;4972817;28;20474;-74
2022/08/13 00:20:19;;;;;;;3.58;1.30;;;25.30;44.90;;;;;;4972536;28;20030;-73
2022/08/13 00:22:45;;;;;;;3.28;1.17;;;25.30;45.40;;;;;;4981987;28;20041;-74
2022/08/13 00:25:11;;;;;;;3.95;1.25;;;25.30;46.00;;;;;;4991862;28;20121;-73
2022/08/13 00:27:37;;;;;;;3.33;1.30;;;25.30;45.50;;;;;;4974170;28;20508;-73
2022/08/13 00:30:05;;;;;;;4.50;1.30;;;25.30;46.70;;;;;;4991323;28;20795;-74
2022/08/13 00:32:31;;;;;;;3.33;1.55;;;25.20;46.40;;;;;;4991938;28;20023;-74
2022/08/13 00:35:01;;;;;;;3.20;1.30;;;25.10;46.40;;;;;;4992309;28;20464;-74
2022/08/13 00:37:27;;;;;;;3.30;1.20;;;25.10;45.90;;;;;;4975651;28;20114;-74
2022/08/13 00:39:56;;;;;;;3.42;1.50;;;25.10;45.50;;;;;;4971940;28;20269;-74
2022/08/13 00:42:25;;;;;;;2.90;1.23;;;25.00;45.80;;;;;;4954847;28;20019;-74
2022/08/13 00:44:51;;;;;;;2.97;1.20;;;24.90;46.60;;;;;;4954586;28;20066;-74
2022/08/13 00:50:05;;;;;;;3.72;1.33;;;24.90;46.30;;;;;;4972391;28;20034;-74
2022/08/13 00:52:36;;;;;;;4.35;1.40;;;24.80;45.80;;;;;;4972153;28;20037;-74
2022/08/13 00:55:07;;;;;;;3.63;1.60;;;24.80;45.60;;;;;;4971659;28;20026;-72
2022/08/13 00:57:34;;;;;;;2.45;1.10;;;24.70;45.00;;;;;;4972056;28;20022;-72
2022/08/13 01:00:12;;;;;;;3.05;1.50;;;24.70;45.40;;;;;;4971504;28;20030;-72
2022/08/13 01:02:51;;;;;;;4.07;1.50;;;24.70;45.40;;;;;;4971430;28;20401;-73
2022/08/13 01:05:19;;;;;;;2.45;1.42;;;24.70;45.70;;;;;;4971584;28;20043;-73
2022/08/13 01:07:46;;;;;;;2.00;1.10;;;24.70;46.60;;;;;;4971620;28;20098;-73
2022/08/13 01:10:13;;;;;;;2.15;1.10;;;24.60;45.40;;;;;;4971119;28;20042;-73
2022/08/13 01:12:39;;;;;;;3.03;1.35;;;24.60;46.40;;;;;;4971546;28;20027;-73
2022/08/13 01:15:07;;;;;;;3.50;1.67;;;24.60;46.40;;;;;;4971060;28;20500;-73
2022/08/13 01:17:35;;;;;;;4.38;1.98;;;24.60;46.60;;;;;;4971541;28;20019;-72
2022/08/13 01:20:02;;;;;;;2.03;0.93;;;24.50;46.40;;;;;;4970612;28;20050;-73
2022/08/13 01:22:29;;;;;;;3.67;1.45;;;24.50;46.80;;;;;;4971339;28;20022;-74
2022/08/13 01:24:55;;;;;;;3.70;1.48;;;24.50;46.10;;;;;;4981063;28;20050;-73
2022/08/13 01:27:23;;;;;;;3.22;1.20;;;24.40;46.60;;;;;;4990522;28;20473;-73
2022/08/13 01:29:50;;;;;;;3.17;1.23;;;24.40;46.60;;;;;;4990280;28;20098;-72
2022/08/13 01:32:17;;;;;;;1.73;1.00;;;24.30;46.80;;;;;;4990752;28;20033;-73
2022/08/13 01:34:45;;;;;;;4.47;1.75;;;24.30;46.90;;;;;;4973446;28;20073;-73
2022/08/13 01:37:12;;;;;;;3.95;1.55;;;24.20;46.80;;;;;;4977303;28;20026;-73
2022/08/13 01:39:38;;;;;;;3.72;1.20;;;24.30;47.90;;;;;;4956476;28;20048;-74
2022/08/13 01:42:06;;;;;;;3.38;1.30;;;24.20;47.50;;;;;;4953602;28;20107;-73
2022/08/13 01:44:33;;;;;;;3.38;1.50;;;24.10;47.10;;;;;;4971242;28;20074;-72
2022/08/13 01:52:40;;;;;;;2.92;1.20;;;24.00;47.40;;;;;;4970396;28;20093;-72
2022/08/13 01:55:06;;;;;;;2.33;1.17;;;24.00;47.00;;;;;;4970466;28;20077;-72
2022/08/13 01:57:40;;;;;;;5.97;1.25;;;24.00;47.10;;;;;;4970479;28;20110;-72
2022/08/13 02:00:09;;;;;;;2.80;1.30;;;23.90;47.10;;;;;;4990155;28;20035;-72
2022/08/13 02:02:34;;;;;;;2.17;1.20;;;23.90;47.30;;;;;;4990122;28;20022;-72
2022/08/13 02:05:00;;;;;;;1.95;1.05;;;23.90;47.00;;;;;;4989741;28;20508;-73
2022/08/13 02:07:26;;;;;;;2.42;1.30;;;23.90;47.10;;;;;;4972490;28;20374;-73
2022/08/13 02:09:52;;;;;;;3.58;1.17;;;23.90;47.20;;;;;;4990043;28;20030;-73
2022/08/13 02:12:18;;;;;;;3.05;1.50;;;23.90;48.00;;;;;;4972394;28;20094;-73
2022/08/13 02:14:43;;;;;;;4.15;1.10;;;23.80;48.40;;;;;;4972341;28;20033;-72
2022/08/13 02:17:34;;;;;;;2.58;1.23;;;23.80;48.10;;;;;;4988980;28;20065;-72
2022/08/13 02:19:57;;;;;;;3.25;1.20;;;23.80;47.70;;;;;;4988888;28;20046;-72
2022/08/13 02:22:24;;;;;;;3.15;1.20;;;23.70;47.50;;;;;;4988629;28;20041;-72
2022/08/13 02:24:52;;;;;;;3.03;1.38;;;23.70;46.60;;;;;;4989592;28;20550;-72
2022/08/13 02:27:20;;;;;;;2.63;1.17;;;23.70;47.30;;;;;;4988428;28;20030;-72
2022/08/13 02:29:47;;;;;;;3.10;1.20;;;23.70;47.10;;;;;;4989344;28;20033;-72
2022/08/13 02:32:13;;;;;;;2.80;1.30;;;23.70;46.90;;;;;;4976704;28;20119;-72
2022/08/13 02:34:39;;;;;;;5.53;1.27;;;23.60;46.70;;;;;;4974408;28;20470;-72
2022/08/13 02:37:05;;;;;;;2.58;1.17;;;23.60;47.00;;;;;;4987165;28;20021;-73
2022/08/13 02:39:31;;;;;;;2.40;1.23;;;23.60;47.50;;;;;;4974292;28;20027;-72
2022/08/13 02:41:57;;;;;;;2.22;1.10;;;23.60;47.70;;;;;;4973655;28;20612;-72
2022/08/13 02:44:26;;;;;;;3.85;1.25;;;23.60;47.50;;;;;;4974126;28;20053;-72
2022/08/13 02:46:54;;;;;;;4.18;1.77;;;23.50;47.50;;;;;;4973748;28;20967;-72
2022/08/13 02:49:21;;;;;;;3.38;1.52;;;23.50;47.20;;;;;;4973847;28;20034;-72
2022/08/13 02:51:49;;;;;;;2.60;1.15;;;23.50;48.10;;;;;;4979126;28;20022;-72
2022/08/13 02:54:17;;;;;;;2.75;1.15;;;23.50;48.20;;;;;;4976970;28;20039;-73
2022/08/13 02:56:43;;;;;;;3.38;1.60;;;23.50;48.00;;;;;;4973669;28;20085;-72
2022/08/13 02:59:10;;;;;;;2.53;1.30;;;23.40;47.50;;;;;;4956670;28;20030;-72
2022/08/13 03:01:40;;;;;;;3.33;1.30;;;23.40;48.20;;;;;;4956148;28;20170;-72
2022/08/13 03:04:07;;;;;;;2.13;0.95;;;23.40;48.40;;;;;;4976721;28;20057;-72
2022/08/13 03:06:33;;;;;;;3.47;1.20;;;23.30;47.90;;;;;;4973830;28;20509;-72
2022/08/13 03:09:01;;;;;;;2.80;1.10;;;23.30;48.20;;;;;;4973460;28;20023;-73
2022/08/13 03:11:29;;;;;;;3.33;1.48;;;23.30;47.90;;;;;;4956464;28;20019;-73
2022/08/13 03:14:02;;;;;;;2.20;1.02;;;23.30;48.30;;;;;;4981897;28;20022;-71
2022/08/13 03:16:28;;;;;;;1.52;0.80;;;23.30;48.80;;;;;;4983514;28;20473;-72
2022/08/13 03:18:57;;;;;;;2.00;0.85;;;23.50;48.60;;;;;;4980296;28;20025;-71
2022/08/13 03:21:33;;;;;;;1.58;0.80;;;23.70;48.30;;;;;;4982530;28;20030;-71
2022/08/13 03:23:59;;;;;;;3.20;1.10;;;24.00;48.00;;;;;;4982890;28;20101;-71
2022/08/13 03:26:25;;;;;;;1.45;0.80;;;24.20;47.40;;;;;;4982647;28;20026;-71
2022/08/13 03:28:51;;;;;;;1.60;0.98;;;24.40;47.10;;;;;;4980771;28;20023;-72
2022/08/13 03:31:21;;;;;;;1.67;1.00;;;24.50;47.10;;;;;;4981507;28;20026;-71
2022/08/13 03:33:47;;;;;;;2.30;1.15;;;24.70;46.80;;;;;;4982642;28;20022;-71
2022/08/13 03:36:14;;;;;;;2.72;1.23;;;24.80;46.40;;;;;;4980696;28;20036;-72
2022/08/13 03:38:39;;;;;;;2.83;1.20;;;24.80;46.50;;;;;;4982216;28;20027;-71
2022/08/13 03:41:11;;;;;;;3.13;1.10;;;24.90;46.40;;;;;;4980382;28;20615;-71
2022/08/13 03:43:45;;;;;;;1.83;0.90;;;25.00;46.30;;;;;;4980624;28;20019;-71
2022/08/13 03:46:13;;;;;;;1.80;0.90;;;25.00;46.30;;;;;;4981808;28;20049;-71
2022/08/13 03:48:39;;;;;;;2.58;1.08;;;25.10;46.30;;;;;;4981639;28;20022;-71
2022/08/13 03:51:06;;;;;;;1.70;0.98;;;25.10;46.10;;;;;;4982651;28;20023;-71
2022/08/13 03:53:32;;;;;;;1.45;0.85;;;25.20;45.90;;;;;;4980790;28;20027;-70
2022/08/13 03:55:58;;;;;;;3.30;1.10;;;25.10;45.80;;;;;;4981100;28;20081;-71
2022/08/13 03:58:25;;;;;;;1.63;0.98;;;25.10;45.50;;;;;;4982655;28;20109;-70
2022/08/13 04:00:50;;;;;;;1.52;0.90;;;25.10;45.60;;;;;;4979587;28;20026;-70
2022/08/13 04:03:19;;;;;;;1.45;0.80;;;25.10;45.70;;;;;;4973799;28;20077;-71
2022/08/13 04:05:45;;;;;;;2.50;1.02;;;25.10;45.60;;;;;;4991145;28;20034;-71
2022/08/13 04:08:11;;;;;;;2.05;1.05;;;25.10;45.40;;;;;;4991216;28;20034;-72
2022/08/13 04:10:37;;;;;;;2.28;1.02;;;25.10;45.40;;;;;;4991272;28;20030;-72
2022/08/13 04:13:04;;;;;;;2.65;1.08;;;25.10;45.20;;;;;;4990238;28;20030;-72
2022/08/13 04:15:32;;;;;;;2.33;0.98;;;25.10;45.40;;;;;;4991076;28;20038;-71
2022/08/13 04:17:58;;;;;;;0.82;0.60;;;25.10;45.60;;;;;;4973766;28;20054;-72
2022/08/13 04:20:24;;;;;;;1.75;0.98;;;25.10;45.70;;;;;;4991382;28;20058;-71
2022/08/13 04:22:49;;;;;;;0.88;0.57;;;25.20;45.70;;;;;;4991245;28;20033;-71
2022/08/13 04:25:15;;;;;;;1.45;0.70;;;25.20;45.60;;;;;;4986828;28;20042;-70
2022/08/13 04:27:41;;;;;;;1.75;0.90;;;25.20;45.40;;;;;;4971693;28;20469;-70
2022/08/13 04:30:07;;;;;;;2.53;0.93;;;25.20;45.50;;;;;;4954097;28;20074;-70
2022/08/13 04:32:42;;;;;;;2.90;0.88;;;25.10;45.30;;;;;;4971319;28;20075;-71
2022/08/13 04:35:10;;;;;;;1.63;1.00;;;25.10;45.40;;;;;;4971519;28;20041;-70
2022/08/13 04:37:37;;;;;;;1.75;0.93;;;25.10;45.40;;;;;;4989556;28;20370;-70
2022/08/13 04:40:05;;;;;;;2.13;0.93;;;25.00;45.40;;;;;;4990707;28;20031;-70
2022/08/13 04:42:53;;;;;;;1.40;0.80;;;25.00;45.30;;;;;;4990771;28;20053;-70
2022/08/13 04:45:22;;;;;;;1.88;0.68;;;25.00;45.40;;;;;;4989799;28;20030;-70
2022/08/13 04:47:48;;;;;;;1.70;0.90;;;25.00;45.10;;;;;;4990296;28;20061;-71
2022/08/13 04:50:14;;;;;;;1.77;0.82;;;25.00;45.50;;;;;;4983559;28;20038;-71
2022/08/13 04:52:42;;;;;;;1.83;0.73;;;25.00;45.20;;;;;;4971310;28;20398;-71
2022/08/13 04:55:12;;;;;;;1.90;0.77;;;25.10;45.10;;;;;;4970347;28;20034;-71
2022/08/13 04:57:38;;;;;;;2.43;0.80;;;25.10;44.90;;;;;;4954021;28;20033;-71
2022/08/13 05:00:08;;;;;;;1.95;0.90;;;25.00;45.60;;;;;;4970300;28;20069;-71
2022/08/13 05:02:42;;;;;;;5.75;1.08;;;24.90;44.90;;;;;;4970948;28;20045;-71
2022/08/13 05:05:10;;;;;;;1.40;0.80;;;25.00;45.00;;;;;;4970807;28;20508;-71
2022/08/13 05:07:36;;;;;;;2.25;1.02;;;25.00;45.30;;;;;;4977226;28;20060;-71
2022/08/13 05:10:02;;;;;;;1.90;0.95;;;25.00;45.30;;;;;;4990165;28;20030;-71
2022/08/13 05:12:35;;;;;;;2.55;0.85;;;25.00;45.30;;;;;;4990122;28;20493;-71
2022/08/13 05:15:01;;;;;;;2.95;0.90;;;25.00;44.80;;;;;;4990308;28;20037;-71
2022/08/13 05:17:32;;;;;;;1.27;0.77;;;25.00;44.70;;;;;;4982701;28;20022;-72
2022/08/13 05:19:58;;;;;;;1.80;0.70;;;24.90;44.60;;;;;;4962088;28;20026;-72
2022/08/13 05:22:28;;;;;;;1.92;0.70;;;24.90;45.20;;;;;;4979350;28;20474;-72
2022/08/13 05:24:54;;;;;;;2.78;1.00;;;24.90;45.00;;;;;;4978818;28;20034;-71
2022/08/13 05:27:19;;;;;;;2.00;0.88;;;24.90;44.80;;;;;;4980886;28;20458;-72
2022/08/13 05:29:46;;;;;;;2.00;0.93;;;24.90;45.10;;;;;;4979550;28;20481;-72
2022/08/13 05:32:11;;;;;;;1.77;0.80;;;24.80;44.70;;;;;;4979057;28;20034;-71
2022/08/13 05:34:37;;;;;;;2.80;1.10;;;24.70;44.70;;;;;;4981223;28;20110;-71
2022/08/13 05:37:04;;;;;;;2.42;1.00;;;24.70;44.80;;;;;;4983344;28;20037;-72
2022/08/13 05:39:32;;;;;;;1.92;0.85;;;24.70;45.00;;;;;;4978987;28;20019;-72
2022/08/13 05:41:58;;;;;;;2.05;1.05;;;24.70;44.90;;;;;;4978963;28;20047;-72
2022/08/13 05:44:24;;;;;;;2.40;0.70;;;24.60;44.80;;;;;;4979833;28;20498;-72
2022/08/13 05:46:49;;;;;;;1.75;0.80;;;24.50;45.00;;;;;;4979415;28;20042;-70
2022/08/13 05:49:15;;;;;;;1.85;0.65;;;24.50;45.00;;;;;;4977804;28;20030;-70
2022/08/13 05:51:44;;;;;;;2.95;0.82;;;24.50;45.80;;;;;;4977909;28;20019;-72
2022/08/13 05:54:10;;;;;;;3.30;1.23;;;24.50;45.40;;;;;;4979431;28;20109;-72
2022/08/13 05:56:37;;;;;;;1.20;0.70;;;24.60;45.30;;;;;;4980890;28;20077;-72
2022/08/13 05:59:05;;;;;;;2.25;1.08;;;24.60;45.20;;;;;;4976741;28;20942;-71
2022/08/13 06:04:17;;;;;;;2.58;1.13;;;24.60;45.20;;;;;;4969619;28;20093;-72
2022/08/13 06:06:42;;;;;;;1.95;1.02;;;24.60;45.10;;;;;;4969875;28;20132;-71
2022/08/13 06:09:09;;;;;;;2.05;0.90;;;24.70;45.30;;;;;;4974135;28;20444;-71
2022/08/13 06:11:35;;;;;;;4.45;1.00;;;24.70;45.20;;;;;;4979659;28;20170;-71
2022/08/13 06:14:01;;;;;;;2.03;1.00;;;24.70;45.10;;;;;;4976587;28;20108;-71
2022/08/13 06:16:30;;;;;;;1.60;0.70;;;24.70;45.60;;;;;;4989784;28;20527;-71
2022/08/13 06:18:59;;;;;;;2.13;0.90;;;24.70;45.20;;;;;;4989691;28;20370;-71
2022/08/13 06:21:26;;;;;;;3.30;1.20;;;24.70;46.00;;;;;;4989001;28;20036;-71
2022/08/13 06:23:52;;;;;;;5.18;1.33;;;24.80;45.20;;;;;;4989093;28;20034;-72
2022/08/13 06:26:20;;;;;;;6.97;1.20;;;24.80;45.30;;;;;;4989766;28;20428;-71
2022/08/13 06:28:52;;;;;;;4.82;1.50;;;24.80;45.50;;;;;;4971898;28;20018;-71
2022/08/13 06:31:28;;;;;;;6.53;1.50;;;24.90;45.30;;;;;;4989458;28;20393;-71
2022/08/13 06:33:55;;;;;;;18.65;2.42;;;24.90;45.90;;;;;;4989126;28;20497;-71
2022/08/13 06:36:24;;;;;;;2.13;1.30;;;25.10;45.70;;;;;;4989092;28;20053;-71
2022/08/13 06:38:50;;;;;;;12.50;1.83;;;25.20;45.00;;;;;;4989434;28;20109;-71
2022/08/13 06:41:18;;;;;;;12.98;1.75;;;25.20;45.20;;;;;;4988746;28;20432;-71
2022/08/13 06:43:51;;;;;;;7.75;1.73;;;25.20;45.20;;;;;;4987344;28;20030;-71
2022/08/13 06:46:22;;;;;;;9.82;1.48;;;25.30;45.00;;;;;;4988730;28;20162;-70
2022/08/13 06:48:49;;;;;;;4.65;1.50;;;25.40;45.00;;;;;;4971968;28;20475;-71
2022/08/13 06:51:14;;;;;;;4.05;1.10;;;25.50;44.70;;;;;;4989228;28;20014;-72
2022/08/13 06:53:42;;;;;;;6.22;1.67;;;25.50;45.20;;;;;;4971495;28;20026;-71
2022/08/13 06:56:12;;;;;;;3.80;1.30;;;25.60;44.90;;;;;;4980184;28;20074;-70
2022/08/13 06:58:42;;;;;;;6.57;1.55;;;25.60;44.70;;;;;;4981501;28;20036;-70
2022/08/13 07:01:09;;;;;;;6.38;1.25;;;25.70;44.00;;;;;;4989321;28;20026;-70
2022/08/13 07:03:38;;;;;;;2.55;1.35;;;25.70;44.30;;;;;;4971699;28;20022;-71
2022/08/13 07:06:04;;;;;;;2.55;1.17;;;25.60;43.90;;;;;;4988882;28;20044;-71
2022/08/13 07:08:30;;;;;;;3.38;1.45;;;25.60;44.20;;;;;;4987701;28;20022;-70
2022/08/13 07:11:44;;;;;;;3.30;1.33;;;25.60;44.20;;;;;;4985374;28;20022;-71
2022/08/13 07:13:49;;;;;;;4.05;1.58;;;25.70;44.60;;;;;;4975501;28;20431;-71
2022/08/13 07:16:16;;;;;;;2.85;1.20;;;25.80;44.60;;;;;;4975757;28;20474;-71
2022/08/13 07:18:43;;;;;;;3.63;1.55;;;26.00;44.40;;;;;;4981343;28;20042;-71
2022/08/13 07:21:11;;;;;;;3.38;1.48;;;26.10;44.20;;;;;;4972314;28;20023;-70
2022/08/13 07:23:38;;;;;;;4.90;2.30;;;26.10;43.80;;;;;;4973160;28;20081;-70
2022/08/13 07:26:05;;;;;;;4.15;1.35;;;26.20;43.90;;;;;;4973102;28;20111;-70
2022/08/13 07:28:32;;;;;;;4.20;1.50;;;26.30;44.00;;;;;;4976513;28;20019;-71
2022/08/13 07:31:00;;;;;;;4.05;1.58;;;26.40;43.60;;;;;;4991104;28;20034;-70
2022/08/13 07:33:26;;;;;;;5.75;1.80;;;26.30;43.40;;;;;;4991070;28;20026;-71
2022/08/13 07:35:52;;;;;;;3.65;1.95;;;26.10;42.90;;;;;;4986021;28;20031;-71
2022/08/13 07:38:18;;;;;;;3.17;1.67;;;26.10;43.40;;;;;;4974281;28;20081;-69
2022/08/13 07:40:48;;;;;;;3.22;1.50;;;26.10;44.00;;;;;;4983101;28;20493;-71
2022/08/13 07:43:18;;;;;;;5.07;1.70;;;26.30;43.90;;;;;;4981083;28;20019;-71
2022/08/13 07:45:46;;;;;;;;;;;26.50;43.90;;;;;;4982858;28;20030;-71
2022/08/13 07:48:12;;;;;;;3.95;1.40;;;26.60;43.60;;;;;;4982786;28;19916;-71
2022/08/13 07:50:39;;;;;;;4.47;1.90;;;26.80;43.40;;;;;;4982797;28;20039;-72
2022/08/13 07:53:06;;;;;;;3.35;1.08;;;26.80;42.80;;;;;;4965963;28;20022;-72
2022/08/13 07:55:31;;;;;;;2.50;1.10;;;26.80;42.80;;;;;;4981230;28;20703;-71
2022/08/13 07:57:57;;;;;;;2.42;1.30;;;26.90;43.10;;;;;;4981946;28;20102;-72
2022/08/13 08:00:25;;;;;;;2.50;1.25;;;27.00;43.30;;;;;;4979671;28;20082;-72
2022/08/13 08:02:56;;;;;;;2.90;1.40;;;27.10;43.00;;;;;;4986142;28;20041;-71
2022/08/13 08:05:24;;;;;;;4.32;1.40;;;27.20;43.20;;;;;;4974683;28;20042;-71
2022/08/13 08:07:51;;;;;;;3.63;1.35;;;27.20;42.30;;;;;;4991857;28;20057;-71
2022/08/13 08:10:18;;;;;;;7.88;5.00;;;27.30;43.00;;;;;;4991312;28;20033;-71
2022/08/13 08:12:44;;;;;;;4.53;2.33;;;27.40;42.90;;;;;;4989821;28;20030;-71
2022/08/13 08:15:11;;;;;;;6.00;2.63;;;27.60;42.70;;;;;;4972137;28;20019;-72
2022/08/13 08:17:38;;;;;;;3.90;1.50;;;27.80;42.30;;;;;;4972458;28;20089;-71
2022/08/13 08:20:06;;;;;;;4.13;2.08;;;27.90;41.90;;;;;;4972432;28;20029;-71
2022/08/13 08:22:33;;;;;;;6.03;1.50;;;28.00;41.50;;;;;;4971811;28;20579;-72
2022/08/13 08:25:00;;;;;;;5.50;1.63;;;28.10;40.90;;;;;;4972294;28;20037;-75
2022/08/13 08:27:25;;;;;;;5.13;1.25;;;28.10;41.70;;;;;;4954781;28;20023;-73
2022/08/13 08:29:52;;;;;;;3.95;1.30;;;28.30;41.40;;;;;;4973880;28;20034;-73
2022/08/13 08:32:18;;;;;;;4.93;1.92;;;28.40;40.30;;;;;;4973593;28;20547;-72
2022/08/13 08:34:47;;;;;;;4.03;1.50;;;28.60;40.30;;;;;;4991272;28;20505;-76
2022/08/13 08:42:49;;;;;;;5.60;1.83;;;29.20;39.80;;;;;;4971651;28;20065;-74
2022/08/13 08:45:18;;;;;;;2.50;1.20;;;29.30;40.00;;;;;;4954503;28;20035;-73
2022/08/13 08:47:45;;;;;;;3.23;1.47;;;29.30;39.50;;;;;;4954960;28;20050;-73
2022/08/13 08:50:11;;;;;;;3.63;1.27;;;29.40;41.60;;;;;;4973206;28;20281;-73
2022/08/13 08:55:24;;;;;;;5.70;1.60;;;29.70;40.50;;;;;;4976990;28;20834;-74
2022/08/13 08:57:52;;;;;;;5.93;1.38;;;29.90;42.60;;;;;;4975006;28;20019;-74
2022/08/13 09:00:19;;;;;;;3.67;1.58;;;30.10;39.10;;;;;;4985648;28;20101;-72
2022/08/13 09:02:51;;;;;;;3.70;1.33;;;30.40;39.30;;;;;;4972013;28;20058;-73
2022/08/13 09:05:21;;;;;;;6.63;1.80;;;30.50;40.80;;;;;;4971591;28;20034;-73
2022/08/13 09:07:47;;;;;;;2.63;1.33;;;30.50;38.60;;;;;;4971473;28;20114;-73
2022/08/13 09:10:15;;;;;;;3.13;1.40;;;30.60;37.70;;;;;;4972086;28;20033;-73
2022/08/13 09:12:43;;;;;;;2.35;1.33;;;30.70;39.90;;;;;;4971873;28;20425;-73
2022/08/13 09:15:11;;;;;;;2.85;1.20;;;30.80;39.40;;;;;;4971741;28;20034;-73
2022/08/13 09:17:38;;;;;;;3.13;1.00;;;30.90;39.20;;;;;;4983076;28;20555;-73
2022/08/13 09:20:12;;;;;;;7.55;1.42;;;31.10;39.60;;;;;;4989750;28;20444;-74
2022/08/13 09:22:44;;;;;;;3.88;1.38;;;31.20;37.30;;;;;;4990034;28;20065;-74
2022/08/13 09:25:13;;;;;;;2.30;0.95;;;31.20;39.10;;;;;;4990015;28;20042;-74
2022/08/13 09:27:43;;;;;;;4.53;1.38;;;31.40;39.90;;;;;;4971890;28;20485;-73
2022/08/13 09:30:10;;;;;;;3.28;1.13;;;31.50;35.40;;;;;;4972067;28;20116;-73
2022/08/13 09:32:36;;;;;;;2.47;0.90;;;31.50;36.60;;;;;;4990314;28;20021;-73
2022/08/13 09:35:06;;;;;;;1.88;1.10;;;31.60;35.70;;;;;;4991372;28;20142;-75
2022/08/13 09:37:32;;;;;;;1.88;1.08;;;31.90;38.10;;;;;;4972410;28;20019;-74
2022/08/13 09:40:04;;;;;;;3.50;1.27;;;32.00;38.50;;;;;;4969836;28;20085;-74
2022/08/13 09:42:36;;;;;;;3.85;1.60;;;32.00;40.40;;;;;;4970525;28;20026;-74
2022/08/13 09:45:03;;;;;;;4.18;0.88;;;31.90;34.00;;;;;;4953045;28;20030;-74
2022/08/13 09:47:29;;;;;;;4.28;1.10;;;32.00;37.80;;;;;;4970394;28;20082;-75
2022/08/13 09:49:56;;;;;;;3.30;1.00;;;32.20;37.00;;;;;;4970424;28;20038;-74
2022/08/13 09:52:23;;;;;;;4.50;1.88;;;32.30;39.90;;;;;;4970965;28;20038;-74
2022/08/13 09:54:49;;;;;;;2.00;1.00;;;32.50;42.60;;;;;;4953549;28;20069;-74
2022/08/13 09:57:19;;;;;;;3.53;1.35;;;32.50;36.90;;;;;;4970432;28;20030;-74
2022/08/13 09:59:44;;;;;;;2.13;1.25;;;32.70;36.00;;;;;;4989323;28;20023;-75
2022/08/13 10:02:12;;;;;;;3.08;1.08;;;32.60;36.10;;;;;;4990096;28;20028;-74
2022/08/13 10:04:38;;;;;;;2.90;1.15;;;32.60;36.50;;;;;;4990113;28;20030;-73
2022/08/13 10:07:07;;;;;;;4.32;1.25;;;32.70;35.80;;;;;;4989926;28;20436;-75
2022/08/13 10:09:34;;;;;;;3.90;1.20;;;32.70;37.40;;;;;;4989129;28;20022;-74
2022/08/13 10:12:02;;;;;;;3.03;1.30;;;32.70;36.80;;;;;;4989674;28;20741;-74
2022/08/13 10:14:27;;;;;;;2.53;1.00;;;32.80;34.70;;;;;;4989326;28;20038;-74
2022/08/13 10:16:53;;;;;;;6.22;1.35;;;32.80;34.80;;;;;;4989321;28;20019;-74
2022/08/13 10:19:19;;;;;;;3.58;0.98;;;32.80;36.20;;;;;;4989831;28;20022;-74
2022/08/13 10:21:45;;;;;;;3.15;1.10;;;32.90;34.50;;;;;;4989259;28;20062;-74
2022/08/13 10:24:11;;;;;;;2.80;1.00;;;33.00;38.90;;;;;;4989310;28;20026;-75
2022/08/13 10:26:40;;;;;;;3.42;1.02;;;33.10;34.10;;;;;;4989257;28;20022;-75
2022/08/13 10:29:08;;;;;;;2.08;0.80;;;33.20;33.60;;;;;;4975336;28;20030;-75
2022/08/13 10:31:34;;;;;;;3.50;1.20;;;33.20;34.80;;;;;;4952678;28;20037;-75
2022/08/13 10:33:59;;;;;;;2.65;1.10;;;33.20;33.50;;;;;;4970358;28;20026;-75
2022/08/13 10:36:28;;;;;;;1.88;1.10;;;33.30;34.50;;;;;;4977460;28;20022;-74
2022/08/13 10:38:55;;;;;;;4.88;1.30;;;33.40;33.80;;;;;;4989397;28;20027;-75
2022/08/13 10:41:21;;;;;;;2.72;1.38;;;33.60;32.50;;;;;;4989565;28;20511;-75
2022/08/13 10:43:48;;;;;;;2.83;1.00;;;33.70;33.00;;;;;;4989134;28;20031;-74
2022/08/13 10:46:20;;;;;;;2.28;0.90;;;33.70;35.40;;;;;;4989082;28;20054;-74
2022/08/13 10:48:55;;;;;;;3.50;1.17;;;33.70;32.70;;;;;;4988686;28;20530;-75
2022/08/13 10:51:21;;;;;;;1.40;0.82;;;33.70;33.90;;;;;;4989431;28;20026;-75
2022/08/13 10:53:58;;;;;;;2.75;0.98;;;33.80;30.70;;;;;;4989698;28;20587;-76
2022/08/13 10:56:27;;;;;;;3.22;0.95;;;33.90;32.80;;;;;;4993288;28;20127;-74
2022/08/13 10:58:54;;;;;;;3.03;1.25;;;34.00;35.20;;;;;;4992998;28;20393;-74
2022/08/13 11:01:24;;;;;;;2.45;0.93;;;34.20;36.30;;;;;;4976064;28;20018;-73
2022/08/13 11:03:52;;;;;;;2.95;1.20;;;34.20;39.60;;;;;;4993286;28;20515;-74
2022/08/13 11:06:18;;;;;;;1.83;1.10;;;34.10;35.40;;;;;;4993602;28;20034;-74
2022/08/13 11:08:44;;;;;;;3.38;1.20;;;34.20;36.60;;;;;;4993313;28;20022;-74
2022/08/13 11:11:10;;;;;;;4.32;0.80;;;34.40;35.50;;;;;;4992975;28;20014;-74
2022/08/13 11:13:37;;;;;;;2.15;1.10;;;34.40;37.00;;;;;;4992804;28;20113;-75
2022/08/13 11:16:06;;;;;;;2.47;1.17;;;34.60;37.80;;;;;;4992699;28;20044;-75
2022/08/13 11:18:32;;;;;;;2.17;0.93;;;34.80;38.80;;;;;;4993015;28;20114;-75
2022/08/13 11:21:06;;;;;;;4.72;1.33;;;35.10;34.80;;;;;;4975522;28;20028;-75
2022/08/13 11:23:32;;;;;;;1.15;0.80;;;35.10;32.40;;;;;;4991281;28;20037;-75
2022/08/13 11:25:58;;;;;;;2.53;1.10;;;35.20;35.00;;;;;;4965144;28;20523;-76
2022/08/13 11:28:24;;;;;;;2.88;1.27;;;35.20;35.70;;;;;;4973728;28;20027;-75
2022/08/13 11:30:52;;;;;;;4.70;0.90;;;35.20;32.10;;;;;;4973706;28;20500;-75
2022/08/13 11:33:19;;;;;;;2.63;1.25;;;35.20;32.00;;;;;;4972772;28;20023;-75
2022/08/13 11:35:45;;;;;;;3.08;0.80;;;35.20;32.00;;;;;;4976397;28;20023;-75
2022/08/13 11:38:13;;;;;;;1.27;0.80;;;35.10;35.60;;;;;;4992714;28;20041;-74
2022/08/13 11:40:44;;;;;;;1.60;0.88;;;35.20;35.20;;;;;;4986808;28;20029;-75
2022/08/13 11:43:10;;;;;;;4.07;1.13;;;35.40;32.30;;;;;;4982625;28;20042;-74
2022/08/13 11:45:35;;;;;;;1.52;0.80;;;35.70;33.40;;;;;;4979228;28;20094;-74
2022/08/13 11:48:04;;;;;;;1.20;0.70;;;35.80;34.20;;;;;;4981545;28;20054;-75
2022/08/13 11:50:31;;;;;;;3.78;1.13;;;35.90;37.10;;;;;;4982592;28;20019;-74
2022/08/13 11:52:56;;;;;;;1.58;0.88;;;36.10;32.00;;;;;;4964675;28;20026;-74
2022/08/13 11:55:22;;;;;;;2.80;0.95;;;36.10;32.70;;;;;;4980825;28;20034;-75
2022/08/13 11:57:47;;;;;;;1.83;0.93;;;35.90;30.30;;;;;;4982477;28;20022;-75
2022/08/13 12:00:14;;;;;;;0.93;0.70;;;35.80;34.60;;;;;;4980039;28;20050;-76
2022/08/13 12:02:41;;;;;;;2.08;0.88;;;35.90;31.00;;;;;;4965452;28;20034;-76
2022/08/13 12:05:07;;;;;;;4.05;1.13;;;36.00;34.90;;;;;;4980068;28;20030;-74
2022/08/13 12:07:33;;;;;;;3.38;1.08;;;36.00;31.40;;;;;;4982387;28;20027;-77
2022/08/13 12:09:58;;;;;;;1.48;0.85;;;36.10;34.00;;;;;;4982801;28;20050;-75
2022/08/13 12:12:26;;;;;;;1.95;0.85;;;36.10;35.10;;;;;;4980911;28;20034;-76
2022/08/13 12:14:51;;;;;;;2.58;1.10;;;36.00;33.90;;;;;;4982257;28;20829;-78
2022/08/13 12:17:18;;;;;;;2.25;1.00;;;35.90;30.40;;;;;;4960850;28;20026;-75
2022/08/13 12:19:43;;;;;;;2.47;0.90;;;36.00;35.40;;;;;;4981702;28;20062;-75
2022/08/13 12:22:09;;;;;;;1.70;0.85;;;36.10;34.80;;;;;;4981897;28;20050;-76
2022/08/13 12:24:35;;;;;;;1.88;0.90;;;36.20;28.80;;;;;;4979745;28;20038;-76
2022/08/13 12:27:01;;;;;;;3.90;1.33;;;36.40;32.60;;;;;;4962981;28;20023;-76
2022/08/13 12:29:26;;;;;;;2.67;0.77;;;36.30;28.00;;;;;;4965163;28;20089;-74
2022/08/13 12:31:52;;;;;;;5.10;1.08;;;36.10;28.80;;;;;;4989358;28;20489;-75
2022/08/13 12:34:17;;;;;;;2.78;0.77;;;36.10;33.90;;;;;;4990609;28;20501;-76
2022/08/13 12:36:43;;;;;;;1.10;0.65;;;36.40;31.90;;;;;;4982060;28;20037;-75
2022/08/13 12:39:09;;;;;;;2.30;0.90;;;36.60;33.10;;;;;;4991398;28;20515;-75
2022/08/13 12:41:34;;;;;;;3.63;1.10;;;36.60;39.10;;;;;;4991841;28;20109;-76
2022/08/13 12:44:00;;;;;;;2.55;1.15;;;36.70;38.80;;;;;;4991537;28;20030;-76
2022/08/13 12:46:25;;;;;;;3.95;1.52;;;36.70;32.20;;;;;;4991089;28;20050;-75
2022/08/13 12:48:51;;;;;;;2.42;0.80;;;36.60;32.10;;;;;;4990883;28;20030;-76
2022/08/13 12:51:17;;;;;;;1.15;0.77;;;36.60;28.90;;;;;;4973300;28;20048;-76
2022/08/13 12:53:42;;;;;;;5.03;0.93;;;36.60;28.80;;;;;;4990228;28;20076;-75
2022/08/13 12:56:08;;;;;;;6.30;1.20;;;36.80;28.30;;;;;;4991520;28;20037;-76
2022/08/13 12:58:33;;;;;;;1.92;1.02;;;36.90;28.90;;;;;;4975207;28;20027;-76
2022/08/13 13:00:59;;;;;;;2.47;0.90;;;36.90;33.00;;;;;;4993668;28;20385;-77
2022/08/13 13:03:28;;;;;;;2.75;0.90;;;36.90;30.20;;;;;;4992181;28;20026;-77
2022/08/13 13:05:54;;;;;;;;;;;36.80;28.50;;;;;;4992124;28;20042;-78
2022/08/13 13:08:25;;;;;;;2.25;1.00;;;36.90;28.70;;;;;;4991433;28;19906;-78
2022/08/13 13:10:52;;;;;;;1.48;0.95;;;36.90;32.00;;;;;;4990887;28;20056;-76
2022/08/13 13:13:21;;;;;;;3.45;0.90;;;36.70;31.30;;;;;;4991388;28;20019;-76